Time;durP1;ratioP1;P1;durP2;ratioP2;P2;SDS_P1;SDS_P2;PMS_P1;PMS_P2;Temp;Humidity;BMP_temperature;BMP_pressure;BME280_temperature;BME280_humidity;BME280_pressure;Samples;Min_cycle;Max_cycle;Signal;HPM_P1;HPM_P2
2022/02/01 06:27:21;;;;;;;15.03;4.33;;;;;;;-2.83;78.76;99313.66;1670000;83;21585;-46
2022/02/01 06:30:18;;;;;;;12.98;5.28;;;;;;;-2.66;78.11;99320.69;1680246;83;20989;-44
2022/02/01 06:34:16;;;;;;;11.83;5.17;;;;;;;-2.53;77.42;99319.03;1667121;84;21056;-37
2022/02/01 06:37:55;;;;;;;13.88;5.92;;;;;;;-2.34;77.04;99330.80;1683435;83;21096;-37
2022/02/01 06:41:28;;;;;;;20.35;5.37;;;;;;;-2.18;76.35;99336.53;1672754;84;21081;-36
2022/02/01 06:45:08;;;;;;;12.43;4.47;;;;;;;-1.99;76.12;99356.39;1671549;84;21080;-44
2022/02/01 06:47:53;;;;;;;12.63;5.17;;;;;;;-1.81;75.39;99357.44;1674764;83;21618;-45
2022/02/01 06:50:44;;;;;;;17.32;4.90;;;;;;;-1.70;74.60;99357.39;1677904;83;21080;-44
2022/02/01 06:53:33;;;;;;;14.98;6.65;;;;;;;-1.61;74.21;99354.73;1665484;84;21001;-44
2022/02/01 06:56:07;;;;;;;17.52;5.92;;;;;;;-1.49;73.85;99360.69;1684643;83;22119;-36
2022/02/01 06:58:28;;;;;;;15.83;5.92;;;;;;;-1.40;73.82;99360.97;1676709;83;21019;-37
2022/02/01 07:00:55;;;;;;;16.87;6.42;;;;;;;-1.30;73.40;99359.59;1680091;83;21028;-37
2022/02/01 07:03:22;;;;;;;18.60;6.62;;;;;;;-1.20;73.18;99361.63;1681337;83;20989;-45
2022/02/01 07:05:49;;;;;;;12.15;5.05;;;;;;;-1.07;72.77;99368.89;1681856;83;21469;-45
2022/02/01 07:08:16;;;;;;;12.98;5.75;;;;;;;-0.96;72.74;99363.23;1681068;83;21057;-36
2022/02/01 07:10:43;;;;;;;12.93;5.12;;;;;;;-0.87;72.45;99369.91;1682735;83;21069;-45
2022/02/01 07:13:10;;;;;;;14.03;5.53;;;;;;;-0.81;71.98;99371.41;1681883;83;21701;-45
2022/02/01 07:15:37;;;;;;;18.20;5.50;;;;;;;-0.77;71.71;99377.08;1681261;83;21036;-44
2022/02/01 07:18:04;;;;;;;14.10;4.87;;;;;;;-0.73;71.04;99381.91;1680410;83;21052;-38
2022/02/01 07:20:32;;;;;;;15.75;5.33;;;;;;;-0.73;70.95;99386.63;1696189;83;21090;-45
2022/02/01 07:23:01;;;;;;;20.72;6.28;;;;;;;-0.74;70.78;99391.73;1692227;83;21658;-37
2022/02/01 07:25:44;;;;;;;18.02;6.22;;;;;;;-0.78;70.90;99383.05;1669085;84;21148;-37
2022/02/01 07:28:05;;;;;;;17.12;6.08;;;;;;;-0.78;71.04;99384.33;1680832;83;20993;-37
2022/02/01 07:30:32;;;;;;;20.50;6.58;;;;;;;-0.78;71.35;99383.05;1734868;81;21597;-46
2022/02/01 07:33:01;;;;;;;27.58;8.15;;;;;;;-0.80;70.96;99385.99;1731768;81;21398;-45
2022/02/01 07:35:30;;;;;;;26.62;9.25;;;;;;;-0.79;71.36;99384.30;1709559;81;21042;-46
2022/02/01 07:37:59;;;;;;;17.55;7.60;;;;;;;-0.77;71.63;99390.34;1734987;81;20980;-38
2022/02/01 07:40:30;;;;;;;17.42;6.92;;;;;;;-0.72;71.79;99388.38;1709065;81;21658;-45
2022/02/01 07:42:59;;;;;;;10.03;5.25;;;;;;;-0.66;71.45;99393.69;1737203;82;21020;-45
2022/02/01 07:45:29;;;;;;;18.52;7.58;;;;;;;-0.60;71.46;99393.01;1715676;81;21306;-37
2022/02/01 07:48:02;;;;;;;13.15;6.10;;;;;;;-0.53;71.53;99402.63;1732520;81;21088;-45
2022/02/01 07:50:34;;;;;;;10.80;5.95;;;;;;;-0.45;71.33;99395.17;1739107;81;21056;-36
2022/02/01 07:53:04;;;;;;;;;;;;;;;-0.39;71.45;99387.23;1739059;81;21040;-46
2022/02/01 07:55:32;;;;;;;12.18;5.20;;;;;;;-0.31;71.27;99393.87;1706644;82;20166;-45
2022/02/01 07:57:59;;;;;;;20.88;6.00;;;;;;;-0.23;70.96;99400.50;1705098;81;21040;-37
2022/02/01 08:00:27;;;;;;;17.45;7.22;;;;;;;-0.16;70.99;99396.02;1736030;81;21016;-38
2022/02/01 08:02:56;;;;;;;16.95;7.10;;;;;;;-0.04;70.85;99392.50;1735148;81;21039;-37
2022/02/01 08:05:25;;;;;;;17.73;7.67;;;;;;;0.08;69.99;99399.69;1671056;84;21014;-37
2022/02/01 08:07:53;;;;;;;13.10;5.83;;;;;;;0.18;69.76;99405.13;1685234;83;21067;-37
2022/02/01 08:10:21;;;;;;;13.80;5.55;;;;;;;0.32;69.33;99401.63;1708679;81;21022;-37
2022/02/01 08:13:46;;;;;;;17.65;6.85;;;;;;;0.45;69.09;99401.53;1735414;81;21489;-37
2022/02/01 08:23:24;;;;;;;15.65;5.53;;;;;;;0.84;68.13;99408.53;1731976;81;21013;-45
2022/02/01 08:26:09;;;;;;;17.60;5.45;;;;;;;0.99;68.08;99403.77;1736007;81;21405;-38
2022/02/01 08:28:48;;;;;;;15.28;5.17;;;;;;;1.18;67.39;99410.22;1693361;83;21606;-46
2022/02/01 08:31:17;;;;;;;9.93;4.67;;;;;;;1.28;66.54;99404.45;1731902;81;20980;-46
2022/02/01 08:33:57;;;;;;;17.62;5.33;;;;;;;1.39;66.26;99408.11;1740588;81;20984;-45
2022/02/01 08:36:27;;;;;;;15.43;6.17;;;;;;;1.52;65.66;99406.28;1708855;81;21049;-38
2022/02/01 08:38:55;;;;;;;13.78;5.15;;;;;;;1.65;64.80;99416.44;1737161;81;21098;-39
2022/02/01 08:41:25;;;;;;;12.10;5.22;;;;;;;1.72;63.24;99417.44;1730790;81;21060;-47
2022/02/01 08:43:54;;;;;;;16.93;5.90;;;;;;;1.77;63.22;99414.54;1740696;81;21020;-38
2022/02/01 08:46:23;;;;;;;10.38;4.37;;;;;;;1.81;63.10;99425.38;1735026;81;21061;-38
2022/02/01 08:48:50;;;;;;;11.68;5.20;;;;;;;1.85;63.52;99416.84;1716364;82;21012;-38
2022/02/01 08:51:19;;;;;;;15.00;5.20;;;;;;;1.95;63.87;99413.63;1733543;81;21739;-38
2022/02/01 08:53:54;;;;;;;10.53;4.62;;;;;;;2.05;63.86;99411.69;1737002;80;21585;-46
2022/02/01 08:58:53;;;;;;;20.70;5.83;;;;;;;2.19;63.50;99409.37;1703288;81;21609;-46
2022/02/01 09:01:23;;;;;;;14.80;5.25;;;;;;;2.24;62.88;99397.42;1739259;81;21566;-46
2022/02/01 09:03:50;;;;;;;12.98;5.12;;;;;;;2.22;63.08;99396.96;1735645;80;21532;-46
2022/02/01 09:06:29;;;;;;;;;;;;;;;2.22;63.07;99398.25;1737251;81;21123;-37
2022/02/01 09:09:07;;;;;;;12.28;6.03;;;;;;;2.27;63.37;99385.88;1735341;81;20431;-46
2022/02/01 09:11:40;;;;;;;17.10;5.20;;;;;;;2.34;63.28;99382.56;1734813;80;21550;-46
2022/02/01 09:18:49;;;;;;;;;;;;;;;2.54;62.07;99384.63;1733942;81;21020;-36
2022/02/01 09:26:46;;;;;;;18.23;4.47;;;;;;;2.69;61.80;99375.00;1740267;81;21550;-46
2022/02/01 09:34:36;;;;;;;12.28;4.75;;;;;;;2.72;61.74;99368.57;1730112;81;21080;-46
2022/02/01 09:37:57;;;;;;;19.15;7.72;;;;;;;2.78;61.52;99369.54;1730819;81;21116;-37
2022/02/01 09:40:30;;;;;;;11.80;4.80;;;;;;;2.85;61.69;99366.66;1730634;81;21036;-39
2022/02/01 09:42:57;;;;;;;18.92;4.60;;;;;;;2.91;61.84;99361.16;1732988;81;21002;-39
2022/02/01 09:45:27;;;;;;;14.90;4.50;;;;;;;2.91;61.47;99363.75;1734727;81;21025;-45
2022/02/01 09:47:54;;;;;;;16.23;5.20;;;;;;;2.88;61.71;99366.69;1730701;81;21533;-46
2022/02/01 09:50:33;;;;;;;19.80;4.90;;;;;;;2.86;62.23;99352.89;1716371;81;21119;-45
2022/02/01 09:53:00;;;;;;;15.93;5.30;;;;;;;2.82;61.80;99361.00;1731037;81;22126;-38
2022/02/01 09:55:34;;;;;;;12.15;4.95;;;;;;;2.80;62.37;99362.70;1731712;81;21048;-46
2022/02/01 09:58:14;;;;;;;23.70;5.55;;;;;;;2.79;62.52;99367.43;1730197;81;20996;-38
2022/02/01 10:00:47;;;;;;;16.55;5.12;;;;;;;2.82;62.82;99361.43;1729195;81;21100;-38
2022/02/01 10:03:24;;;;;;;12.93;4.22;;;;;;;2.88;62.86;99348.61;1728651;81;21032;-45
2022/02/01 10:06:47;;;;;;;13.28;4.55;;;;;;;2.92;62.04;99355.15;1725100;81;21092;-38
2022/02/01 10:10:39;;;;;;;13.90;3.62;;;;;;;2.92;62.31;99349.98;1631831;86;21000;-45
2022/02/01 10:14:04;;;;;;;17.42;5.15;;;;;;;2.86;62.49;99346.44;1635262;86;21448;-45
2022/02/01 10:30:42;;;;;;;19.20;7.58;;;;;;;2.91;62.58;99366.76;1633433;86;21045;-39
2022/02/01 10:37:08;;;;;;;14.10;5.40;;;;;;;3.04;62.43;99366.09;1588911;87;22275;-37
2022/02/01 10:40:00;;;;;;;11.65;5.65;;;;;;;3.02;62.56;99360.05;1588416;87;21048;-40
2022/02/01 10:42:31;;;;;;;14.70;5.50;;;;;;;2.94;62.88;99367.66;1584308;88;21914;-47
2022/02/01 10:44:59;;;;;;;15.32;5.53;;;;;;;2.82;63.34;99365.30;1600214;87;21651;-45
2022/02/01 10:48:12;;;;;;;9.95;5.10;;;;;;;2.70;63.71;99383.19;1696738;82;21013;-40
2022/02/01 10:51:36;;;;;;;17.35;5.58;;;;;;;2.59;64.21;99367.50;1700957;82;21544;-46
2022/02/01 10:54:37;;;;;;;16.35;6.67;;;;;;;2.52;64.91;99370.41;1705713;82;21014;-37
2022/02/01 10:58:16;;;;;;;25.57;6.17;;;;;;;2.56;65.27;99367.05;1675390;83;21629;-45
2022/02/01 11:01:33;;;;;;;18.00;6.97;;;;;;;2.57;65.51;99357.58;1690786;82;21076;-45
2022/02/01 11:04:26;;;;;;;23.45;7.45;;;;;;;2.62;65.88;99361.98;1701671;82;21067;-45
2022/02/01 11:07:07;;;;;;;13.18;5.67;;;;;;;2.73;65.79;99359.58;1700530;82;21407;-37
2022/02/01 11:13:43;;;;;;;16.17;5.30;;;;;;;3.04;65.01;99366.09;1699014;82;21600;-38
2022/02/01 11:16:31;;;;;;;11.97;5.50;;;;;;;3.17;64.57;99360.25;1703651;82;21059;-37
2022/02/01 11:22:53;;;;;;;12.53;4.45;;;;;;;3.51;63.80;99355.56;1698205;82;21080;-39
2022/02/01 11:35:58;;;;;;;18.98;6.83;;;;;;;3.50;62.82;99353.83;1700640;82;21071;-45
2022/02/01 11:38:39;;;;;;;18.00;6.78;;;;;;;3.40;63.31;99354.12;1702191;82;21618;-45
2022/02/01 11:41:37;;;;;;;20.10;6.45;;;;;;;3.37;63.42;99351.52;1703034;82;21106;-38
2022/02/01 11:44:13;;;;;;;20.10;7.75;;;;;;;3.33;63.26;99352.30;1719341;81;21058;-38
2022/02/01 11:47:23;;;;;;;20.55;6.12;;;;;;;3.27;63.32;99344.89;1674024;84;21240;-38
2022/02/01 11:50:13;;;;;;;13.88;5.33;;;;;;;3.23;63.39;99347.84;1678905;83;21022;-39
2022/02/01 11:53:33;;;;;;;13.08;5.30;;;;;;;3.24;63.27;99353.87;1678155;84;21028;-38
2022/02/01 12:00:25;;;;;;;12.98;4.72;;;;;;;3.17;63.41;99356.38;1675244;84;21606;-47
2022/02/01 12:14:24;;;;;;;14.70;7.45;;;;;;;3.06;64.02;99335.09;1610897;86;21399;-38
2022/02/01 12:17:44;;;;;;;22.32;8.83;;;;;;;3.08;64.38;99333.42;1632221;86;21780;-45
2022/02/01 12:21:32;;;;;;;23.40;9.80;;;;;;;3.02;64.26;99325.16;1609130;87;21600;-38
2022/02/01 12:24:29;;;;;;;22.00;9.63;;;;;;;2.90;64.71;99324.98;1566409;88;21085;-46
2022/02/01 12:28:10;;;;;;;24.02;8.88;;;;;;;2.84;64.78;99330.02;1564099;88;21227;-46
2022/02/01 12:30:38;;;;;;;18.40;7.50;;;;;;;2.79;64.82;99326.09;1581973;88;21529;-47
2022/02/01 12:33:06;;;;;;;14.23;7.70;;;;;;;2.83;64.92;99325.70;1606502;87;21185;-38
2022/02/01 12:36:11;;;;;;;20.17;8.05;;;;;;;2.90;64.57;99328.85;1598056;88;21589;-38
2022/02/01 12:39:44;;;;;;;16.77;6.12;;;;;;;2.96;64.63;99333.21;1660262;84;21104;-47
2022/02/01 12:42:43;;;;;;;21.73;7.37;;;;;;;3.00;64.38;99334.58;1662522;84;21544;-38
2022/02/01 12:49:05;;;;;;;16.75;5.97;;;;;;;3.02;63.45;99348.41;1643790;85;21643;-46
2022/02/01 12:51:46;;;;;;;19.70;7.45;;;;;;;2.97;63.23;99350.05;1662487;85;21104;-39
2022/02/01 12:54:26;;;;;;;16.80;5.83;;;;;;;2.87;63.07;99355.49;1658961;85;21091;-45
2022/02/01 12:57:09;;;;;;;17.25;6.03;;;;;;;2.79;63.52;99360.97;1664583;85;21507;-40
2022/02/01 12:59:38;;;;;;;;;;;;;;;2.76;63.50;99367.36;1695326;81;21060;-39
2022/02/01 13:02:11;;;;;;;11.83;4.60;;;;;;;2.70;63.68;99377.59;1727482;82;20107;-46
2022/02/01 13:04:39;;;;;;;16.42;4.87;;;;;;;2.65;63.82;99378.80;1722294;82;21062;-37
2022/02/01 13:07:22;;;;;;;14.80;7.90;;;;;;;2.61;63.98;99377.45;1731371;82;21116;-47
2022/02/01 13:15:27;;;;;;;27.40;15.10;;;;;;;2.48;64.33;99380.64;1727610;82;21053;-37
2022/02/01 13:18:00;;;;;;;23.83;14.40;;;;;;;2.40;64.58;99381.38;1724470;82;21066;-39
2022/02/01 13:20:19;;;;;;;25.70;13.85;;;;;;;2.38;64.69;99381.80;1723293;82;21712;-38
2022/02/01 13:22:53;;;;;;;22.95;13.18;;;;;;;2.32;64.79;99379.09;1708586;82;21049;-39
2022/02/01 13:25:44;;;;;;;26.10;11.88;;;;;;;2.25;64.98;99381.09;1712937;82;21472;-47
2022/02/01 13:28:13;;;;;;;22.85;10.65;;;;;;;2.16;65.35;99377.48;1714904;82;20969;-40
2022/02/01 13:30:44;;;;;;;33.35;13.25;;;;;;;2.06;65.86;99385.47;1714489;82;21051;-39
2022/02/01 13:33:15;;;;;;;45.95;26.45;;;;;;;2.03;66.11;99391.84;1644322;85;21060;-39
2022/02/01 13:35:55;;;;;;;29.18;15.25;;;;;;;2.02;66.15;99393.55;1676506;83;20997;-38
2022/02/01 13:38:25;;;;;;;25.48;12.68;;;;;;;2.00;66.58;99395.24;1677941;83;21009;-38
2022/02/01 13:40:55;;;;;;;26.40;9.88;;;;;;;1.97;66.95;99399.06;1677856;83;21069;-47
2022/02/01 13:43:26;;;;;;;16.17;7.80;;;;;;;1.95;67.32;99402.44;1678409;85;20998;-48
2022/02/01 13:45:54;;;;;;;15.58;6.40;;;;;;;1.93;67.48;99402.84;1664674;84;21559;-45
2022/02/01 13:48:26;;;;;;;14.25;5.97;;;;;;;1.91;67.53;99401.91;1675168;83;21342;-47
2022/02/01 13:50:56;;;;;;;12.20;6.23;;;;;;;1.84;67.73;99408.66;1667939;83;21041;-47
